Time;durP1;ratioP1;P1;durP2;ratioP2;P2;SDS_P1;SDS_P2;PMS_P1;PMS_P2;Temp;Humidity;BMP_temperature;BMP_pressure;BME280_temperature;BME280_humidity;BME280_pressure;Samples;Min_cycle;Max_cycle;Signal;HPM_P1;HPM_P2
2022/05/12 00:01:18;;;;;;;0.47;0.20;;;11.00;99.90;;;;;;5055725;28;20471;-79
2022/05/12 00:03:43;;;;;;;0.82;0.30;;;10.90;99.90;;;;;;5073976;28;20021;-79
2022/05/12 00:06:09;;;;;;;0.20;0.20;;;10.90;99.90;;;;;;5073895;28;20380;-79
2022/05/12 00:08:35;;;;;;;0.28;0.20;;;10.80;99.90;;;;;;5072263;28;20021;-79
2022/05/12 00:11:01;;;;;;;0.95;0.47;;;10.80;99.90;;;;;;5073427;28;20021;-79
2022/05/12 00:13:27;;;;;;;0.45;0.20;;;10.80;99.90;;;;;;5072202;28;20021;-79
2022/05/12 00:15:54;;;;;;;0.35;0.20;;;10.70;99.90;;;;;;5073243;28;20341;-79
2022/05/12 00:18:20;;;;;;;0.95;0.30;;;10.70;99.90;;;;;;5072048;28;20159;-79
2022/05/12 00:20:46;;;;;;;0.32;0.20;;;10.60;99.90;;;;;;5055248;28;20059;-79
2022/05/12 00:23:13;;;;;;;0.60;0.30;;;10.50;99.90;;;;;;5055619;28;20376;-79
2022/05/12 00:25:39;;;;;;;0.73;0.30;;;10.50;99.90;;;;;;5073133;28;20609;-79
2022/05/12 00:28:05;;;;;;;0.82;0.30;;;10.50;99.90;;;;;;5072095;28;20055;-79
2022/05/12 00:30:32;;;;;;;0.40;0.20;;;10.40;99.90;;;;;;5073890;28;20075;-79
2022/05/12 00:32:57;;;;;;;0.20;0.20;;;10.40;99.90;;;;;;5072263;28;20090;-79
2022/05/12 00:35:23;;;;;;;0.40;0.20;;;10.40;99.90;;;;;;5073992;28;20469;-80
2022/05/12 00:37:49;;;;;;;0.35;0.20;;;10.30;99.90;;;;;;5071943;28;20060;-79
2022/05/12 00:40:16;;;;;;;0.20;0.20;;;10.30;99.90;;;;;;5055437;28;20020;-79
2022/05/12 00:43:04;;;;;;;0.75;0.30;;;10.20;99.90;;;;;;5071940;28;20020;-80
2022/05/12 00:45:32;;;;;;;0.35;0.20;;;10.10;99.90;;;;;;5073712;28;20029;-80
2022/05/12 00:47:58;;;;;;;0.38;0.20;;;10.10;99.90;;;;;;5072234;28;20032;-80
2022/05/12 00:50:42;;;;;;;0.52;0.30;;;10.10;99.90;;;;;;5074901;28;20435;-79
2022/05/12 00:53:10;;;;;;;0.43;0.30;;;10.10;99.90;;;;;;5076825;28;20092;-80
2022/05/12 00:55:40;;;;;;;0.52;0.30;;;10.00;99.90;;;;;;5077452;28;20028;-79
2022/05/12 00:58:09;;;;;;;0.68;0.30;;;9.90;99.90;;;;;;5076897;28;20025;-79
2022/05/12 01:00:36;;;;;;;0.63;0.30;;;9.90;99.90;;;;;;5076845;28;20021;-79
2022/05/12 01:03:08;;;;;;;0.68;0.30;;;9.90;99.90;;;;;;5077309;28;20074;-79
2022/05/12 01:05:33;;;;;;;0.88;0.30;;;9.80;99.90;;;;;;5076775;28;20099;-79
2022/05/12 01:07:59;;;;;;;1.00;0.32;;;9.80;99.90;;;;;;5076864;28;20064;-79
2022/05/12 01:10:26;;;;;;;0.75;0.30;;;9.80;99.90;;;;;;5076879;28;20033;-79
2022/05/12 01:12:53;;;;;;;0.43;0.25;;;9.70;99.90;;;;;;5076651;28;20062;-79
2022/05/12 01:15:21;;;;;;;0.25;0.20;;;9.70;99.90;;;;;;5075204;28;20027;-79
2022/05/12 01:17:50;;;;;;;0.57;0.30;;;9.70;99.90;;;;;;5076378;28;20107;-79
2022/05/12 01:20:16;;;;;;;0.68;0.30;;;9.60;99.90;;;;;;5075117;28;20029;-79
2022/05/12 01:22:56;;;;;;;0.52;0.22;;;9.60;99.90;;;;;;5074975;28;20032;-79
2022/05/12 01:25:26;;;;;;;0.47;0.30;;;9.60;99.90;;;;;;5074838;28;20052;-79
2022/05/12 01:27:52;;;;;;;0.70;0.30;;;9.50;99.90;;;;;;5076462;28;20068;-79
2022/05/12 01:30:21;;;;;;;0.63;0.30;;;9.50;99.90;;;;;;5075987;28;20060;-79
2022/05/12 01:32:47;;;;;;;0.65;0.30;;;9.60;99.90;;;;;;5076377;28;20026;-79
2022/05/12 01:35:20;;;;;;;0.43;0.20;;;9.50;99.90;;;;;;5076228;28;20028;-79
2022/05/12 01:37:46;;;;;;;0.43;0.30;;;9.60;99.90;;;;;;5076076;28;20094;-79
2022/05/12 01:40:15;;;;;;;0.93;0.30;;;9.50;99.90;;;;;;5057955;28;20067;-79
2022/05/12 01:42:41;;;;;;;0.28;0.20;;;9.40;99.90;;;;;;5075643;28;20025;-79
2022/05/12 01:45:09;;;;;;;0.55;0.30;;;9.40;99.90;;;;;;5075658;28;20028;-79
2022/05/12 01:47:36;;;;;;;0.80;0.30;;;9.40;99.90;;;;;;5074849;28;20066;-80
2022/05/12 01:50:03;;;;;;;0.52;0.30;;;9.40;99.90;;;;;;5076109;28;20028;-79
2022/05/12 01:52:28;;;;;;;0.47;0.25;;;9.40;99.90;;;;;;5075115;28;20026;-79
2022/05/12 01:54:54;;;;;;;0.60;0.30;;;9.30;99.90;;;;;;5057707;28;20535;-79
2022/05/12 01:57:22;;;;;;;0.75;0.30;;;9.30;99.90;;;;;;5075765;28;20032;-79
2022/05/12 01:59:48;;;;;;;0.40;0.30;;;9.30;99.90;;;;;;5058527;28;20447;-79
2022/05/12 02:02:14;;;;;;;0.28;0.20;;;9.30;99.90;;;;;;5041112;28;20056;-79
2022/05/12 02:04:40;;;;;;;0.25;0.22;;;9.30;99.90;;;;;;5074467;28;20032;-79
2022/05/12 02:07:07;;;;;;;0.20;0.20;;;9.30;99.90;;;;;;5057924;28;20029;-79
2022/05/12 02:09:32;;;;;;;0.95;0.30;;;9.30;99.90;;;;;;5074307;28;20047;-78
2022/05/12 02:11:58;;;;;;;0.65;0.30;;;9.20;99.90;;;;;;5075628;28;20464;-79
2022/05/12 02:14:24;;;;;;;0.60;0.25;;;9.30;99.90;;;;;;5074211;28;20082;-79
2022/05/12 02:16:49;;;;;;;0.73;0.30;;;9.20;99.90;;;;;;5074338;28;20490;-79
2022/05/12 02:19:15;;;;;;;0.45;0.25;;;9.20;99.90;;;;;;5075249;28;20033;-79
2022/05/12 02:21:41;;;;;;;0.70;0.30;;;9.20;99.90;;;;;;5058024;28;20097;-79
2022/05/12 02:24:07;;;;;;;0.77;0.30;;;9.20;99.90;;;;;;5074147;28;20407;-79
2022/05/12 02:26:33;;;;;;;0.88;0.30;;;9.20;99.90;;;;;;5074143;28;20037;-79
2022/05/12 02:28:58;;;;;;;0.63;0.30;;;9.20;99.90;;;;;;5041384;28;20449;-79
2022/05/12 02:31:25;;;;;;;0.32;0.20;;;9.20;99.90;;;;;;5075295;28;20028;-79
2022/05/12 02:33:51;;;;;;;0.20;0.20;;;9.10;99.90;;;;;;5073873;28;20127;-79
2022/05/12 02:36:17;;;;;;;0.73;0.30;;;9.20;99.90;;;;;;5075138;28;20028;-79
2022/05/12 02:38:42;;;;;;;0.73;0.30;;;9.10;99.90;;;;;;5075329;28;20048;-79
2022/05/12 02:41:08;;;;;;;0.45;0.30;;;9.10;99.90;;;;;;5074808;28;20520;-79
2022/05/12 02:43:34;;;;;;;0.93;0.30;;;9.10;99.90;;;;;;5073768;28;20025;-80
2022/05/12 02:46:03;;;;;;;0.77;0.30;;;9.10;99.90;;;;;;5057208;28;20031;-80
2022/05/12 02:48:31;;;;;;;0.45;0.28;;;9.00;99.90;;;;;;5073680;28;20105;-79
2022/05/12 02:50:57;;;;;;;0.20;0.20;;;9.00;99.90;;;;;;5074874;28;20032;-80
2022/05/12 02:53:24;;;;;;;0.57;0.30;;;9.00;99.90;;;;;;5073844;28;20036;-79
2022/05/12 02:55:50;;;;;;;0.82;0.30;;;9.00;99.90;;;;;;5073247;28;20039;-79
2022/05/12 02:58:16;;;;;;;0.38;0.20;;;9.00;99.90;;;;;;5074489;28;20419;-79
2022/05/12 03:00:42;;;;;;;0.98;0.30;;;9.00;99.90;;;;;;5073529;28;20082;-79
2022/05/12 03:03:07;;;;;;;0.38;0.25;;;8.90;99.90;;;;;;5056839;28;20519;-79
2022/05/12 03:05:34;;;;;;;0.57;0.30;;;8.90;99.90;;;;;;5074459;28;20024;-80
2022/05/12 03:08:00;;;;;;;0.85;0.30;;;8.90;99.90;;;;;;5056958;28;20029;-79
2022/05/12 03:10:26;;;;;;;0.55;0.30;;;8.90;99.90;;;;;;5073059;28;20135;-79
2022/05/12 03:12:52;;;;;;;0.22;0.20;;;8.90;99.90;;;;;;5073814;28;20027;-79
2022/05/12 03:15:18;;;;;;;0.60;0.30;;;8.90;99.90;;;;;;5073174;28;20486;-79
2022/05/12 03:17:44;;;;;;;0.90;0.30;;;8.90;99.90;;;;;;5072935;28;20049;-79
2022/05/12 03:20:14;;;;;;;0.60;0.30;;;8.90;99.90;;;;;;5074068;28;20070;-78
2022/05/12 03:22:40;;;;;;;0.82;0.30;;;8.80;99.90;;;;;;5073739;28;20024;-78
2022/05/12 03:25:10;;;;;;;1.17;0.35;;;8.80;99.90;;;;;;5074164;28;20079;-79
2022/05/12 03:27:36;;;;;;;0.50;0.30;;;8.80;99.90;;;;;;5072498;28;20017;-79
2022/05/12 03:30:04;;;;;;;0.68;0.30;;;8.80;99.90;;;;;;5072551;28;20106;-79
2022/05/12 03:32:30;;;;;;;0.50;0.30;;;8.80;99.90;;;;;;5073807;28;20016;-79
2022/05/12 03:34:55;;;;;;;1.02;0.38;;;8.80;99.90;;;;;;5074555;28;20048;-80
2022/05/12 03:37:21;;;;;;;0.73;0.30;;;8.70;99.90;;;;;;5056105;28;20047;-78
2022/05/12 03:39:47;;;;;;;1.60;0.40;;;8.70;99.90;;;;;;5056040;28;20039;-79
2022/05/12 03:42:15;;;;;;;0.47;0.30;;;8.70;99.90;;;;;;5072820;28;20123;-79
2022/05/12 03:44:47;;;;;;;0.30;0.20;;;8.70;99.90;;;;;;5073184;28;20527;-79
2022/05/12 03:47:24;;;;;;;0.57;0.30;;;8.70;99.90;;;;;;5072608;28;20033;-79
2022/05/12 03:49:55;;;;;;;0.40;0.30;;;8.70;99.90;;;;;;5074392;28;20021;-79
2022/05/12 03:52:24;;;;;;;0.28;0.20;;;8.70;99.90;;;;;;5072691;28;20024;-79
2022/05/12 03:54:51;;;;;;;0.52;0.30;;;8.70;99.90;;;;;;5073851;28;20029;-79
2022/05/12 03:57:19;;;;;;;0.32;0.25;;;8.70;99.90;;;;;;5072169;28;20040;-79
2022/05/12 03:59:48;;;;;;;0.85;0.30;;;8.70;99.90;;;;;;5073503;28;20020;-79
2022/05/12 04:02:14;;;;;;;0.20;0.20;;;8.70;99.90;;;;;;5073563;28;20020;-79
2022/05/12 04:04:41;;;;;;;0.90;0.32;;;8.70;99.90;;;;;;5072721;28;20048;-79
2022/05/12 04:07:07;;;;;;;0.63;0.30;;;8.70;99.90;;;;;;5055715;28;20036;-79
2022/05/12 04:09:32;;;;;;;0.28;0.28;;;8.80;99.90;;;;;;5056062;28;20492;-79
2022/05/12 04:11:58;;;;;;;0.30;0.28;;;8.80;99.90;;;;;;5072325;28;20039;-79
2022/05/12 04:14:24;;;;;;;0.28;0.20;;;8.90;99.90;;;;;;5073382;28;20079;-78
2022/05/12 04:16:50;;;;;;;0.47;0.30;;;8.90;99.90;;;;;;5071710;28;20036;-79
2022/05/12 04:19:16;;;;;;;0.80;0.30;;;9.00;99.90;;;;;;5072143;28;20127;-80
2022/05/12 04:21:42;;;;;;;0.98;0.35;;;9.00;99.90;;;;;;5056383;28;20032;-80
2022/05/12 04:24:09;;;;;;;0.50;0.30;;;9.10;99.90;;;;;;5056021;28;20388;-78
2022/05/12 04:26:36;;;;;;;0.75;0.30;;;9.10;99.90;;;;;;5078547;28;20054;-80
2022/05/12 04:29:04;;;;;;;1.08;0.40;;;9.20;99.90;;;;;;5078579;28;20025;-80
2022/05/12 04:31:30;;;;;;;0.57;0.30;;;9.20;99.90;;;;;;5079566;28;20036;-79
2022/05/12 04:36:40;;;;;;;0.65;0.30;;;9.30;99.90;;;;;;5077073;28;20028;-81
2022/05/12 04:39:06;;;;;;;0.75;0.30;;;9.30;99.90;;;;;;5077905;28;20036;-80
2022/05/12 04:41:32;;;;;;;0.75;0.30;;;9.30;99.90;;;;;;5080401;28;20016;-80
2022/05/12 04:43:59;;;;;;;1.15;0.40;;;9.40;99.90;;;;;;5076243;28;20025;-79
2022/05/12 04:46:26;;;;;;;0.65;0.30;;;9.50;99.90;;;;;;5077073;28;20035;-80
2022/05/12 04:48:52;;;;;;;0.75;0.38;;;9.50;99.90;;;;;;5075630;28;20028;-79
2022/05/12 04:51:18;;;;;;;1.13;0.45;;;9.50;99.90;;;;;;5075459;28;20048;-81
2022/05/12 04:53:44;;;;;;;0.75;0.30;;;9.60;99.90;;;;;;5076841;28;20056;-79
2022/05/12 04:56:09;;;;;;;0.60;0.30;;;9.60;99.90;;;;;;5076425;28;20028;-79
2022/05/12 04:58:40;;;;;;;0.85;0.30;;;9.70;99.90;;;;;;5076684;28;20501;-79
2022/05/12 05:01:06;;;;;;;0.63;0.30;;;9.80;99.90;;;;;;5058957;28;20059;-79
2022/05/12 05:03:32;;;;;;;0.80;0.30;;;9.80;99.90;;;;;;5076681;28;20028;-79
2022/05/12 05:05:58;;;;;;;0.63;0.30;;;9.80;99.90;;;;;;5058809;28;20033;-79
2022/05/12 05:08:25;;;;;;;1.65;0.40;;;9.90;99.90;;;;;;5076762;28;20060;-79
2022/05/12 05:10:53;;;;;;;0.47;0.28;;;9.90;99.90;;;;;;5076868;28;20036;-80
2022/05/12 05:13:20;;;;;;;0.47;0.30;;;10.00;99.90;;;;;;5076767;28;20024;-79
2022/05/12 05:15:50;;;;;;;0.82;0.30;;;10.10;99.90;;;;;;5075210;28;20067;-79
2022/05/12 05:18:19;;;;;;;0.28;0.20;;;10.10;99.90;;;;;;5077176;28;20107;-79
2022/05/12 05:20:46;;;;;;;0.40;0.30;;;10.20;99.90;;;;;;5076576;28;20085;-80
2022/05/12 05:23:15;;;;;;;0.95;0.77;;;10.30;99.90;;;;;;5076454;28;20021;-79
2022/05/12 05:25:41;;;;;;;0.73;0.30;;;10.30;99.90;;;;;;5075247;28;20039;-79
2022/05/12 05:28:08;;;;;;;0.32;0.20;;;10.40;99.90;;;;;;5074897;28;20036;-79
2022/05/12 05:30:33;;;;;;;0.98;0.32;;;10.50;99.90;;;;;;5076446;28;20029;-79
2022/05/12 05:32:59;;;;;;;0.90;0.30;;;10.60;99.90;;;;;;5074869;28;20040;-79
2022/05/12 05:35:25;;;;;;;1.65;0.75;;;10.70;99.90;;;;;;5075773;28;20072;-77
2022/05/12 05:37:52;;;;;;;0.75;0.30;;;10.80;99.90;;;;;;5076182;28;20118;-77
2022/05/12 05:40:20;;;;;;;0.90;0.60;;;10.90;99.90;;;;;;5074988;28;20027;-77
2022/05/12 05:42:47;;;;;;;0.75;0.40;;;11.00;99.90;;;;;;5074806;28;20020;-78
2022/05/12 05:45:16;;;;;;;0.45;0.30;;;11.10;99.90;;;;;;5075404;28;20029;-81
2022/05/12 05:47:45;;;;;;;4.53;0.70;;;11.30;99.90;;;;;;5076519;28;20210;-79
2022/05/12 05:50:16;;;;;;;0.63;0.30;;;11.40;99.90;;;;;;5076151;28;20108;-79
2022/05/12 05:55:26;;;;;;;0.93;0.82;;;11.80;99.90;;;;;;5076404;28;20051;-78
2022/05/12 05:57:51;;;;;;;0.63;0.30;;;12.00;99.90;;;;;;5074331;28;20029;-81
2022/05/12 06:00:19;;;;;;;0.90;0.32;;;12.30;99.90;;;;;;5057877;28;20040;-82
2022/05/12 06:02:45;;;;;;;0.40;0.20;;;12.70;99.90;;;;;;5075091;28;20059;-82
2022/05/12 06:05:11;;;;;;;0.45;0.20;;;12.80;99.90;;;;;;5075340;28;20025;-81
2022/05/12 06:07:41;;;;;;;0.47;0.25;;;12.90;99.90;;;;;;5076173;28;20452;-81
2022/05/12 06:10:08;;;;;;;0.47;0.30;;;13.20;99.90;;;;;;5074535;28;20384;-81
2022/05/12 06:12:34;;;;;;;0.70;0.30;;;13.50;99.90;;;;;;5075614;28;20033;-84
2022/05/12 06:15:00;;;;;;;0.65;0.40;;;13.90;99.90;;;;;;5074223;28;20025;-81
2022/05/12 06:17:26;;;;;;;0.63;0.30;;;14.10;99.90;;;;;;5073990;28;20116;-80
2022/05/12 06:19:52;;;;;;;0.63;0.25;;;14.40;99.90;;;;;;5075219;28;20017;-80
2022/05/12 06:22:20;;;;;;;0.80;0.30;;;14.90;99.90;;;;;;5073823;28;20024;-80
2022/05/12 06:24:49;;;;;;;0.55;0.20;;;15.10;99.90;;;;;;5075547;28;20078;-80
2022/05/12 06:27:19;;;;;;;0.47;0.22;;;15.10;99.90;;;;;;5073697;28;20040;-80
2022/05/12 06:29:45;;;;;;;0.73;0.30;;;15.80;99.90;;;;;;5073959;28;20029;-80
2022/05/12 06:32:12;;;;;;;0.68;0.20;;;16.10;99.90;;;;;;5074728;28;20104;-77
2022/05/12 06:34:41;;;;;;;0.20;0.13;;;16.70;99.90;;;;;;5075199;28;20049;-77
2022/05/12 06:37:08;;;;;;;0.57;0.20;;;16.90;99.90;;;;;;5074757;28;20112;-77
2022/05/12 06:39:34;;;;;;;0.40;0.20;;;17.10;99.90;;;;;;5076897;28;20107;-78
2022/05/12 06:42:01;;;;;;;0.52;0.40;;;17.10;99.90;;;;;;5075588;28;20060;-76
2022/05/12 06:44:27;;;;;;;0.68;0.20;;;17.50;99.90;;;;;;5073655;28;20391;-76
2022/05/12 06:46:53;;;;;;;0.57;0.20;;;17.50;99.90;;;;;;5072147;28;20128;-76
2022/05/12 06:49:19;;;;;;;0.70;0.20;;;17.80;99.90;;;;;;5074442;28;20024;-77
2022/05/12 06:51:45;;;;;;;0.28;0.13;;;18.50;99.90;;;;;;5074050;28;20064;-77
2022/05/12 06:54:12;;;;;;;0.28;0.10;;;18.70;99.90;;;;;;5074451;28;20035;-86
2022/05/12 06:56:38;;;;;;;0.70;0.47;;;19.00;99.90;;;;;;5041022;28;20028;-81
2022/05/12 06:59:03;;;;;;;0.17;0.10;;;19.10;99.90;;;;;;5056600;28;20388;-76
2022/05/12 07:01:29;;;;;;;0.25;0.10;;;19.10;99.90;;;;;;5074189;28;20029;-77
2022/05/12 07:03:56;;;;;;;0.10;0.10;;;19.40;99.90;;;;;;5073846;28;20025;-77
2022/05/12 07:06:22;;;;;;;0.43;0.10;;;19.70;99.90;;;;;;5072916;28;20039;-77
2022/05/12 07:08:48;;;;;;;0.45;0.15;;;20.00;99.90;;;;;;5074273;28;20464;-77
2022/05/12 07:11:13;;;;;;;0.28;0.13;;;20.50;99.90;;;;;;5074569;28;20064;-77
2022/05/12 07:13:39;;;;;;;0.15;0.10;;;20.30;99.90;;;;;;5074310;28;20025;-77
2022/05/12 07:16:06;;;;;;;0.17;0.10;;;20.10;99.90;;;;;;5073001;28;20036;-76
2022/05/12 07:18:32;;;;;;;0.10;0.10;;;19.90;99.90;;;;;;5073353;28;20028;-76
2022/05/12 07:26:35;;;;;;;0.25;0.25;;;19.70;99.90;;;;;;5073913;28;20121;-76
2022/05/12 07:29:01;;;;;;;0.10;0.10;;;19.90;99.90;;;;;;5072473;28;20028;-77
2022/05/12 07:31:27;;;;;;;0.03;0.03;;;19.80;99.90;;;;;;5074349;28;20056;-77
2022/05/12 07:33:54;;;;;;;0.10;0.10;;;19.80;99.90;;;;;;5055634;28;20061;-77
2022/05/12 07:36:23;;;;;;;0.10;0.10;;;19.90;99.90;;;;;;5072757;28;20039;-77
2022/05/12 07:38:49;;;;;;;0.55;0.20;;;20.20;99.90;;;;;;5073298;28;20028;-77
2022/05/12 07:41:16;;;;;;;0.15;0.10;;;20.30;99.90;;;;;;5072512;28;20028;-77
2022/05/12 07:43:44;;;;;;;0.10;0.10;;;20.40;99.90;;;;;;5073608;28;20017;-77
2022/05/12 07:46:12;;;;;;;0.17;0.10;;;20.40;97.40;;;;;;5072522;28;20037;-77
2022/05/12 07:48:39;;;;;;;0.17;0.10;;;20.30;99.90;;;;;;5073727;28;20021;-77
2022/05/12 07:51:05;;;;;;;0.30;0.10;;;20.70;99.90;;;;;;5073607;28;20058;-77
2022/05/12 07:53:32;;;;;;;0.25;0.10;;;20.80;99.90;;;;;;5073646;28;20510;-77
2022/05/12 07:55:58;;;;;;;0.17;0.10;;;21.00;99.90;;;;;;5072243;28;20033;-77
2022/05/12 07:58:24;;;;;;;0.20;0.10;;;21.10;99.10;;;;;;5073429;28;20021;-77
2022/05/12 08:00:52;;;;;;;0.17;0.10;;;20.40;97.20;;;;;;5072341;28;20040;-77
2022/05/12 08:03:17;;;;;;;0.10;0.10;;;20.30;98.20;;;;;;5072326;28;20372;-77
2022/05/12 08:05:43;;;;;;;0.05;0.05;;;20.40;99.80;;;;;;5073146;28;20028;-76
2022/05/12 08:08:11;;;;;;;0.28;0.10;;;20.10;93.90;;;;;;5073229;28;20078;-76
2022/05/12 08:10:37;;;;;;;0.10;0.10;;;21.00;98.30;;;;;;5072155;28;20054;-76
2022/05/12 08:13:04;;;;;;;0.10;0.10;;;20.50;98.60;;;;;;5072764;28;20024;-76
2022/05/12 08:15:31;;;;;;;0.15;0.15;;;20.10;99.00;;;;;;5071830;28;20073;-76
2022/05/12 08:17:57;;;;;;;0.13;0.10;;;19.50;99.90;;;;;;5073457;28;20044;-76
2022/05/12 08:20:23;;;;;;;0.10;0.10;;;19.70;99.90;;;;;;5075069;28;20078;-76
2022/05/12 08:22:49;;;;;;;1.20;0.57;;;19.50;99.90;;;;;;5071846;28;20021;-76
2022/05/12 08:25:16;;;;;;;0.10;0.10;;;20.00;99.90;;;;;;5073296;28;20086;-76
2022/05/12 08:27:42;;;;;;;0.10;0.10;;;19.30;99.50;;;;;;5073131;28;20032;-76
2022/05/12 08:30:12;;;;;;;0.13;0.13;;;19.60;99.90;;;;;;5073247;28;20047;-76
2022/05/12 08:32:38;;;;;;;0.20;0.10;;;20.00;98.30;;;;;;5073503;28;20016;-76
2022/05/12 08:35:05;;;;;;;0.25;0.10;;;19.60;98.30;;;;;;5071817;28;20381;-76
2022/05/12 08:37:30;;;;;;;0.10;0.10;;;20.40;93.80;;;;;;5071951;28;20039;-76
2022/05/12 08:39:56;;;;;;;0.22;0.13;;;19.50;99.90;;;;;;5073126;28;20105;-76
2022/05/12 08:42:37;;;;;;;0.15;0.10;;;19.40;99.90;;;;;;5073095;28;20029;-76
2022/05/12 08:45:06;;;;;;;0.47;0.32;;;19.20;99.90;;;;;;5073980;28;20110;-77
2022/05/12 08:47:42;;;;;;;0.17;0.10;;;18.70;99.90;;;;;;5073038;28;20029;-76
2022/05/12 08:50:08;;;;;;;0.45;0.20;;;18.30;99.90;;;;;;5071975;28;20024;-76
2022/05/12 08:52:51;;;;;;;0.70;0.32;;;18.50;99.90;;;;;;5071585;28;20379;-76
2022/05/12 08:55:25;;;;;;;0.10;0.10;;;18.80;99.90;;;;;;5073250;28;20035;-76
2022/05/12 08:58:09;;;;;;;0.17;0.10;;;19.30;99.90;;;;;;5073032;28;20133;-76
2022/05/12 09:00:42;;;;;;;0.10;0.10;;;19.40;99.90;;;;;;5072896;28;20021;-76
2022/05/12 09:03:14;;;;;;;0.68;0.20;;;19.10;99.90;;;;;;5072895;28;20375;-76
2022/05/12 09:05:43;;;;;;;;;;;18.80;99.90;;;;;;5073400;28;20032;-76
2022/05/12 09:08:31;;;;;;;0.17;0.10;;;19.20;99.90;;;;;;5073301;28;20243;-76
2022/05/12 09:11:04;;;;;;;0.10;0.10;;;19.90;99.90;;;;;;5074622;28;20028;-76
2022/05/12 09:13:46;;;;;;;0.57;0.20;;;20.30;98.50;;;;;;5076544;28;20020;-77
2022/05/12 09:16:31;;;;;;;0.20;0.10;;;20.10;98.10;;;;;;5076533;28;20078;-76
2022/05/12 09:18:58;;;;;;;0.17;0.10;;;20.10;95.70;;;;;;5076502;28;20151;-76
2022/05/12 09:21:36;;;;;;;0.32;0.13;;;20.10;96.70;;;;;;5075145;28;20452;-76
2022/05/12 09:24:04;;;;;;;0.10;0.10;;;19.70;93.50;;;;;;5076066;28;20020;-76
2022/05/12 09:26:44;;;;;;;0.40;0.10;;;19.80;93.50;;;;;;5074798;28;20127;-77
2022/05/12 09:29:22;;;;;;;0.17;0.10;;;19.80;98.50;;;;;;5076207;28;20342;-77
2022/05/12 09:31:54;;;;;;;0.35;0.10;;;19.20;97.90;;;;;;5076187;28;20035;-77
2022/05/12 09:34:22;;;;;;;0.10;0.10;;;18.90;96.40;;;;;;5074469;28;20484;-79
2022/05/12 09:36:48;;;;;;;0.20;0.10;;;18.70;98.20;;;;;;5080697;28;20017;-85
2022/05/12 09:39:38;;;;;;;0.17;0.10;;;18.40;99.40;;;;;;5088888;28;20058;-83
2022/05/12 09:42:08;;;;;;;0.28;0.10;;;18.00;99.90;;;;;;5078597;28;20021;-86
2022/05/12 09:44:34;;;;;;;0.30;0.10;;;18.20;99.90;;;;;;5076138;28;20084;-86
2022/05/12 09:47:12;;;;;;;0.13;0.10;;;18.60;96.60;;;;;;5058280;28;20020;-86
2022/05/12 09:49:41;;;;;;;0.47;0.17;;;18.40;96.90;;;;;;5076900;28;20490;-86
2022/05/12 09:52:19;;;;;;;0.38;0.10;;;18.80;96.10;;;;;;5075520;28;20021;-79
2022/05/12 09:54:45;;;;;;;0.43;0.10;;;19.20;96.90;;;;;;5075923;28;20023;-81
2022/05/12 09:57:15;;;;;;;0.10;0.10;;;18.80;94.60;;;;;;5076636;28;20029;-81
2022/05/12 09:59:44;;;;;;;0.52;0.20;;;18.60;94.40;;;;;;5074745;28;20024;-81
2022/05/12 10:07:53;;;;;;;0.17;0.10;;;18.20;98.30;;;;;;5076669;28;20126;-81
2022/05/12 10:08:32;;;;;;;0.32;0.10;;;18.10;96.70;;;;;;5076196;28;20055;-83
2022/05/12 10:11:04;;;;;;;0.57;0.13;;;19.00;95.90;;;;;;5074910;28;20017;-83
2022/05/12 10:13:42;;;;;;;0.15;0.10;;;20.20;94.70;;;;;;5074181;28;20031;-86
2022/05/12 10:16:09;;;;;;;0.47;0.30;;;20.80;74.70;;;;;;5076037;28;20031;-91
2022/05/12 10:18:52;;;;;;;0.17;0.10;;;21.40;69.40;;;;;;5077830;28;20021;-86
2022/05/12 10:21:27;;;;;;;0.28;0.10;;;21.60;63.90;;;;;;5074115;28;20090;-88
2022/05/12 10:24:06;;;;;;;0.10;0.10;;;22.10;59.60;;;;;;5080527;28;20032;-88
2022/05/12 10:26:43;;;;;;;0.10;0.10;;;21.20;58.30;;;;;;5077871;28;20029;-89
2022/05/12 10:29:50;;;;;;;0.17;0.10;;;21.90;61.50;;;;;;5075868;28;20031;-90
2022/05/12 10:33:13;;;;;;;0.30;0.17;;;22.60;61.60;;;;;;5071911;28;20040;-90
2022/05/12 10:35:57;;;;;;;0.10;0.10;;;23.10;58.60;;;;;;5030022;28;20459;-88
2022/05/12 10:38:44;;;;;;;0.10;0.10;;;22.70;56.30;;;;;;5074662;28;20522;-90
2022/05/12 10:41:24;;;;;;;0.00;0.00;;;23.30;55.20;;;;;;5075865;28;20064;-84
2022/05/12 10:44:14;;;;;;;0.10;0.10;;;22.20;56.80;;;;;;5076366;28;20021;-90
2022/05/12 10:47:06;;;;;;;0.10;0.10;;;22.80;55.00;;;;;;5075674;28;20123;-83
2022/05/12 10:49:46;;;;;;;0.10;0.08;;;21.70;56.90;;;;;;5075626;28;20083;-85
2022/05/12 10:52:12;;;;;;;0.20;0.10;;;21.10;57.30;;;;;;5073755;28;20050;-83
2022/05/12 10:54:53;;;;;;;0.10;0.10;;;21.80;57.00;;;;;;5073473;28;20024;-82
2022/05/12 10:57:44;;;;;;;0.10;0.10;;;21.30;58.10;;;;;;5073356;28;20028;-85
2022/05/12 11:00:48;;;;;;;0.10;0.10;;;21.50;57.30;;;;;;5073088;28;20024;-86
2022/05/12 11:03:21;;;;;;;0.10;0.08;;;21.60;57.90;;;;;;5073264;28;20035;-85
2022/05/12 11:05:53;;;;;;;0.10;0.10;;;22.40;58.70;;;;;;5073401;28;20452;-79
2022/05/12 11:08:40;;;;;;;0.15;0.05;;;23.50;56.20;;;;;;5073683;28;20154;-81
2022/05/12 11:11:15;;;;;;;0.00;0.00;;;23.80;54.60;;;;;;5074081;28;20167;-79
2022/05/12 11:14:11;;;;;;;0.10;0.10;;;24.70;53.40;;;;;;5073761;28;20021;-77
2022/05/12 11:16:47;;;;;;;0.10;0.10;;;24.10;48.50;;;;;;5075059;28;20078;-78
2022/05/12 11:19:15;;;;;;;0.00;0.00;;;24.30;51.20;;;;;;5074509;28;20028;-77
2022/05/12 11:21:49;;;;;;;0.00;0.00;;;23.60;49.10;;;;;;5073696;28;20055;-83
2022/05/12 11:24:24;;;;;;;0.08;0.08;;;22.60;50.10;;;;;;5073210;28;20075;-84
2022/05/12 11:26:58;;;;;;;0.17;0.10;;;23.00;50.90;;;;;;5072582;28;20070;-84
2022/05/12 11:29:49;;;;;;;0.13;0.10;;;22.90;50.60;;;;;;5072768;28;20120;-84
2022/05/12 11:32:26;;;;;;;0.30;0.20;;;23.30;49.50;;;;;;5073129;28;20062;-84
2022/05/12 11:35:05;;;;;;;0.10;0.10;;;23.20;49.50;;;;;;5072376;28;20056;-85
2022/05/12 11:37:43;;;;;;;0.10;0.10;;;23.10;48.80;;;;;;5073820;28;20141;-85
2022/05/12 11:40:30;;;;;;;0.10;0.10;;;23.20;50.70;;;;;;5073292;28;20074;-84
2022/05/12 11:45:48;;;;;;;0.10;0.10;;;23.50;48.80;;;;;;5073802;28;20035;-80
2022/05/12 11:48:43;;;;;;;0.00;0.00;;;23.70;49.60;;;;;;5072942;28;20020;-82
2022/05/12 11:51:17;;;;;;;0.00;0.00;;;22.80;49.40;;;;;;5073428;28;20017;-82
2022/05/12 11:53:46;;;;;;;0.03;0.03;;;21.90;49.20;;;;;;5073226;28;20032;-84
2022/05/12 11:56:37;;;;;;;0.00;0.00;;;21.70;51.20;;;;;;5074138;28;20032;-84
2022/05/12 11:59:26;;;;;;;0.00;0.00;;;21.40;52.90;;;;;;5076749;28;20134;-84
2022/05/12 12:01:54;;;;;;;0.17;0.10;;;21.80;53.80;;;;;;5074907;28;20048;-88
2022/05/12 12:04:47;;;;;;;0.10;0.10;;;22.10;52.10;;;;;;5073316;28;20032;-83
2022/05/12 12:07:30;;;;;;;0.10;0.10;;;22.90;51.10;;;;;;5073837;28;20035;-83
2022/05/12 12:10:16;;;;;;;0.08;0.00;;;23.00;49.60;;;;;;5073853;28;20032;-85
2022/05/12 12:12:42;;;;;;;0.10;0.10;;;22.20;50.30;;;;;;5072995;28;20410;-89
2022/05/12 12:15:23;;;;;;;0.10;0.10;;;21.70;50.80;;;;;;5073139;28;20025;-87
2022/05/12 12:17:49;;;;;;;0.10;0.10;;;21.40;51.40;;;;;;5072589;28;20369;-87
2022/05/12 12:20:31;;;;;;;0.00;0.00;;;21.10;52.00;;;;;;5073173;28;20024;-84
2022/05/12 12:23:21;;;;;;;1.35;0.35;;;21.00;52.40;;;;;;5074360;28;20028;-84
2022/05/12 12:26:26;;;;;;;0.20;0.20;;;21.00;53.50;;;;;;5059118;28;20132;-81
2022/05/12 12:28:58;;;;;;;0.17;0.10;;;21.20;54.50;;;;;;5072418;28;20060;-80
2022/05/12 12:31:30;;;;;;;0.17;0.10;;;20.70;53.10;;;;;;5073828;28;20017;-81
2022/05/12 12:34:01;;;;;;;0.10;0.10;;;20.40;52.50;;;;;;5072292;28;20089;-82
2022/05/12 12:36:36;;;;;;;0.10;0.10;;;21.60;55.50;;;;;;5073398;28;20025;-81
2022/05/12 12:39:04;;;;;;;0.00;0.00;;;22.00;52.10;;;;;;5072994;28;20384;-84
2022/05/12 12:41:29;;;;;;;0.10;0.10;;;21.80;52.10;;;;;;5072378;28;20055;-80
2022/05/12 12:44:03;;;;;;;0.08;0.08;;;21.10;51.90;;;;;;5073514;28;20028;-79
2022/05/12 12:46:37;;;;;;;0.75;0.30;;;20.70;52.40;;;;;;5075193;28;20058;-82
2022/05/12 12:49:11;;;;;;;0.20;0.10;;;21.30;54.20;;;;;;5077946;28;20057;-80
2022/05/12 12:51:39;;;;;;;0.17;0.10;;;20.80;52.50;;;;;;5077722;28;20025;-79
2022/05/12 12:57:24;;;;;;;0.10;0.10;;;21.30;50.50;;;;;;5068361;28;20037;-79
2022/05/12 12:59:54;;;;;;;0.10;0.10;;;21.10;51.70;;;;;;5077283;28;20020;-86
2022/05/12 13:02:41;;;;;;;0.10;0.10;;;21.30;55.90;;;;;;5077833;28;20031;-80
2022/05/12 13:05:10;;;;;;;0.17;0.10;;;21.80;52.30;;;;;;5078794;28;20021;-81
2022/05/12 13:07:38;;;;;;;0.20;0.20;;;21.00;50.80;;;;;;5079353;28;20021;-81
2022/05/12 13:10:09;;;;;;;0.25;0.10;;;20.60;52.50;;;;;;5079771;28;20024;-80
2022/05/12 13:12:36;;;;;;;0.17;0.10;;;20.50;53.10;;;;;;5080510;28;20489;-81
2022/05/12 13:15:16;;;;;;;0.10;0.10;;;20.40;52.40;;;;;;5063594;28;20027;-81
2022/05/12 13:17:50;;;;;;;0.10;0.10;;;20.40;51.70;;;;;;5080457;28;20050;-86
2022/05/12 13:20:21;;;;;;;0.10;0.10;;;20.10;50.60;;;;;;5077504;28;20137;-86
2022/05/12 13:22:56;;;;;;;0.52;0.25;;;19.90;49.50;;;;;;5083223;28;20049;-83
2022/05/12 13:25:25;;;;;;;0.10;0.10;;;19.80;52.10;;;;;;5078719;28;20032;-85
2022/05/12 13:27:52;;;;;;;0.10;0.10;;;20.30;51.50;;;;;;5078162;28;20017;-86